createdAt,value
2023-12-07T00:00:46.293Z,96362.53
2023-12-07T00:03:13.929Z,96368.88
2023-12-07T00:05:43.173Z,96366.63
2023-12-07T00:08:11.669Z,96374.25
2023-12-07T00:10:39.298Z,96376.88
2023-12-07T00:13:06.950Z,96379.59
2023-12-07T00:15:35.128Z,96385.63
2023-12-07T00:18:04.140Z,96382.59
2023-12-07T00:20:31.950Z,96384.50
2023-12-07T00:23:00.881Z,96383.66
2023-12-07T00:25:28.479Z,96385.56
2023-12-07T00:27:56.125Z,96390.72
2023-12-07T00:30:23.932Z,96392.16
2023-12-07T00:32:51.599Z,96390.00
2023-12-07T00:35:23.053Z,96392.75
2023-12-07T00:37:51.463Z,96386.44
2023-12-07T00:40:20.445Z,96389.16
2023-12-07T00:42:48.356Z,96386.88
2023-12-07T00:45:16.054Z,96389.50
2023-12-07T00:47:44.055Z,96397.38
2023-12-07T00:50:15.499Z,96405.47
2023-12-07T00:52:43.338Z,96395.03
2023-12-07T00:55:12.491Z,96393.09
2023-12-07T00:57:42.155Z,96397.06
2023-12-07T01:00:11.443Z,96397.38
2023-12-07T01:02:39.005Z,96403.31
2023-12-07T01:05:07.753Z,96401.97
2023-12-07T01:07:35.430Z,96407.53
2023-12-07T01:10:03.048Z,96402.28
2023-12-07T01:12:30.736Z,96403.75
2023-12-07T01:14:59.696Z,96406.44
2023-12-07T01:17:27.280Z,96418.44
2023-12-07T01:19:55.115Z,96425.09
2023-12-07T01:22:23.027Z,96417.81
2023-12-07T01:24:50.822Z,96430.16
2023-12-07T01:27:19.183Z,96426.19
2023-12-07T01:29:46.792Z,96436.88
2023-12-07T01:32:15.716Z,96438.13
2023-12-07T01:34:43.347Z,96441.59
2023-12-07T01:37:10.989Z,96439.91
2023-12-07T01:39:38.554Z,96431.41
2023-12-07T01:42:06.270Z,96439.34
2023-12-07T01:44:33.961Z,96442.56
2023-12-07T01:47:01.764Z,96441.22
2023-12-07T01:49:31.219Z,96450.66
2023-12-07T01:51:59.624Z,96449.63
2023-12-07T01:54:27.346Z,96459.81
2023-12-07T01:56:57.195Z,96460.91
2023-12-07T01:59:25.341Z,96458.00
2023-12-07T02:01:53.330Z,96461.13
2023-12-07T02:04:21.039Z,96455.50
2023-12-07T02:06:50.273Z,96467.94
2023-12-07T02:09:18.284Z,96464.69
2023-12-07T02:11:45.799Z,96466.38
2023-12-07T02:14:13.923Z,96467.09
2023-12-07T02:16:47.258Z,96474.56
2023-12-07T02:19:27.026Z,96465.97
2023-12-07T02:22:01.770Z,96463.03
2023-12-07T02:24:35.005Z,96467.63
2023-12-07T02:27:03.980Z,96468.06
2023-12-07T02:29:31.517Z,96475.16
2023-12-07T02:31:59.132Z,96477.97
2023-12-07T02:34:26.763Z,96485.00
2023-12-07T02:36:57.541Z,96480.69
2023-12-07T02:39:26.501Z,96475.47
2023-12-07T02:41:54.599Z,96472.03
2023-12-07T02:44:23.527Z,96481.56
2023-12-07T02:46:51.359Z,96488.56
2023-12-07T02:49:18.935Z,96485.09
2023-12-07T02:51:46.533Z,96481.97
2023-12-07T02:54:14.187Z,96483.75
2023-12-07T02:56:41.711Z,96482.78
2023-12-07T02:59:09.231Z,96479.13
2023-12-07T03:01:38.183Z,96480.19
2023-12-07T03:04:06.102Z,96478.72
2023-12-07T03:06:33.680Z,96489.72
2023-12-07T03:09:01.226Z,96484.38
2023-12-07T03:11:28.739Z,96483.56
2023-12-07T03:13:56.266Z,96477.78
2023-12-07T03:16:23.897Z,96475.56
2023-12-07T03:18:52.817Z,96476.22
2023-12-07T03:21:20.337Z,96483.94
2023-12-07T03:23:47.859Z,96483.16
2023-12-07T03:26:15.365Z,96487.25
2023-12-07T03:28:42.977Z,96481.94
2023-12-07T03:31:10.541Z,96490.72
2023-12-07T03:33:39.361Z,96501.66
2023-12-07T03:36:09.451Z,96501.06
2023-12-07T03:38:36.951Z,96505.84
2023-12-07T03:41:04.988Z,96500.69
2023-12-07T03:43:32.558Z,96501.75
2023-12-07T03:46:00.247Z,96508.41
2023-12-07T03:48:27.826Z,96518.44
2023-12-07T03:50:55.382Z,96513.81
2023-12-07T03:53:24.298Z,96520.47
2023-12-07T03:55:52.014Z,96521.66
2023-12-07T03:58:19.549Z,96514.94
2023-12-07T04:00:47.357Z,96522.88
2023-12-07T04:03:14.929Z,96521.00
2023-12-07T04:05:42.724Z,96524.09
2023-12-07T04:08:10.254Z,96533.13
2023-12-07T04:10:39.231Z,96524.38
2023-12-07T04:13:07.301Z,96522.81
2023-12-07T04:15:34.890Z,96529.63
2023-12-07T04:18:03.671Z,96536.41
2023-12-07T04:20:31.218Z,96537.69
2023-12-07T04:22:58.745Z,96546.59
2023-12-07T04:25:26.310Z,96546.34
2023-12-07T04:27:55.198Z,96532.31
2023-12-07T04:30:22.872Z,96539.88
2023-12-07T04:32:50.459Z,96537.66
2023-12-07T04:35:18.040Z,96538.84
2023-12-07T04:37:45.603Z,96539.44
2023-12-07T04:40:13.917Z,96540.72
2023-12-07T04:42:42.069Z,96537.13
2023-12-07T04:45:11.700Z,96539.03
2023-12-07T04:47:39.278Z,96532.00
2023-12-07T04:50:07.557Z,96545.72
2023-12-07T04:52:35.555Z,96548.06
2023-12-07T04:55:04.872Z,96547.00
2023-12-07T04:57:32.416Z,96550.34
2023-12-07T04:59:59.947Z,96551.81
2023-12-07T05:02:29.023Z,96547.09
2023-12-07T05:04:56.550Z,96543.19
2023-12-07T05:07:24.757Z,96550.41
2023-12-07T05:09:52.648Z,96555.41
2023-12-07T05:12:20.199Z,96550.88
2023-12-07T05:14:48.251Z,96543.03
2023-12-07T05:17:16.572Z,96549.25
2023-12-07T05:19:46.148Z,96547.59
2023-12-07T05:22:13.715Z,96550.22
2023-12-07T05:24:41.265Z,96546.44
2023-12-07T05:27:08.814Z,96549.88
2023-12-07T05:29:38.189Z,96544.00
2023-12-07T05:32:08.861Z,96560.25
2023-12-07T05:34:36.582Z,96567.84
2023-12-07T05:37:06.263Z,96567.97
2023-12-07T05:39:33.917Z,96568.56
2023-12-07T05:42:01.478Z,96569.81
2023-12-07T05:44:29.031Z,96576.19
2023-12-07T05:46:56.544Z,96579.69
2023-12-07T05:49:24.408Z,96583.28
2023-12-07T05:51:53.445Z,96578.09
2023-12-07T05:54:23.251Z,96582.78
2023-12-07T05:56:51.000Z,96589.53
2023-12-07T05:59:18.701Z,96591.97
2023-12-07T06:01:46.289Z,96584.69
2023-12-07T06:04:14.372Z,96584.19
2023-12-07T06:06:42.106Z,96579.53
2023-12-07T06:09:09.790Z,96576.06
2023-12-07T06:11:38.737Z,96582.66
2023-12-07T06:14:07.422Z,96585.56
2023-12-07T06:16:35.120Z,96586.63
2023-12-07T06:19:02.719Z,96581.53
2023-12-07T06:21:31.123Z,96582.22
2023-12-07T06:23:59.814Z,96574.63
2023-12-07T06:26:27.394Z,96579.41
2023-12-07T06:28:56.277Z,96583.31
2023-12-07T06:31:23.916Z,96578.25
2023-12-07T06:33:52.014Z,96579.19
2023-12-07T06:36:23.014Z,96577.25
2023-12-07T06:38:50.924Z,96585.06
2023-12-07T06:41:18.443Z,96579.91
2023-12-07T06:43:46.261Z,96581.34
2023-12-07T06:46:17.274Z,96590.41
2023-12-07T06:48:44.884Z,96592.22
2023-12-07T06:51:13.611Z,96592.03
2023-12-07T06:53:41.992Z,96599.28
2023-12-07T06:56:10.558Z,96589.44
2023-12-07T06:58:38.216Z,96591.84
2023-12-07T07:01:06.040Z,96593.19
2023-12-07T07:03:36.354Z,96593.41
2023-12-07T07:06:04.033Z,96592.88
2023-12-07T07:08:31.592Z,96592.84
2023-12-07T07:10:59.250Z,96592.59
2023-12-07T07:13:26.871Z,96591.72
2023-12-07T07:15:56.037Z,96587.63
2023-12-07T07:18:25.319Z,96600.44
2023-12-07T07:20:54.301Z,96596.19
2023-12-07T07:23:21.850Z,96600.69
2023-12-07T07:25:49.461Z,96614.34
2023-12-07T07:28:17.002Z,96615.72
2023-12-07T07:30:44.558Z,96605.75
2023-12-07T07:33:12.148Z,96603.56
2023-12-07T07:35:39.770Z,96606.59
2023-12-07T07:38:08.653Z,96610.75
2023-12-07T07:40:37.029Z,96612.88
2023-12-07T07:43:04.577Z,96607.34
2023-12-07T07:45:32.127Z,96621.19
2023-12-07T07:47:59.745Z,96618.25
2023-12-07T07:50:27.316Z,96620.03
2023-12-07T07:52:54.884Z,96625.63
2023-12-07T07:55:23.789Z,96626.34
2023-12-07T07:57:51.308Z,96629.91
2023-12-07T08:00:20.360Z,96632.75
2023-12-07T08:02:48.176Z,96645.75
2023-12-07T08:05:15.937Z,96640.41
2023-12-07T08:07:43.527Z,96645.44
2023-12-07T08:10:11.337Z,96638.28
2023-12-07T08:12:41.646Z,96644.56
2023-12-07T08:15:11.965Z,96650.63
2023-12-07T08:17:39.945Z,96642.72
2023-12-07T08:20:09.950Z,96642.28
2023-12-07T08:22:37.500Z,96643.59
2023-12-07T08:25:11.124Z,96640.97
2023-12-07T08:27:41.272Z,96639.66
2023-12-07T08:30:11.312Z,96637.38
2023-12-07T08:32:39.122Z,96629.50
2023-12-07T08:35:07.740Z,96634.03
2023-12-07T08:37:35.532Z,96634.44
2023-12-07T08:40:03.157Z,96623.75
2023-12-07T08:42:32.758Z,96626.91
2023-12-07T08:45:01.662Z,96629.81
2023-12-07T08:47:31.317Z,96634.59
2023-12-07T08:49:58.994Z,96635.50
2023-12-07T08:52:35.781Z,96636.56
2023-12-07T08:55:10.302Z,96640.63
2023-12-07T08:57:38.557Z,96640.50
2023-12-07T09:00:08.855Z,96644.34
2023-12-07T09:02:45.620Z,96643.09
2023-12-07T09:07:43.118Z,96635.72
2023-12-07T09:10:11.537Z,96635.91
2023-12-07T09:12:40.147Z,96631.47
2023-12-07T09:15:12.185Z,96635.88
2023-12-07T09:17:40.241Z,96632.66
2023-12-07T09:20:12.990Z,96622.28
2023-12-07T09:22:41.956Z,96626.25
2023-12-07T09:25:11.135Z,96620.81
2023-12-07T09:27:39.309Z,96627.47
2023-12-07T09:30:11.885Z,96618.28
2023-12-07T09:32:40.205Z,96622.63
2023-12-07T09:35:08.924Z,96629.09
2023-12-07T09:37:36.947Z,96627.16
2023-12-07T09:40:06.857Z,96618.88
2023-12-07T09:42:36.658Z,96627.66
2023-12-07T09:45:06.068Z,96624.94
2023-12-07T09:47:38.844Z,96625.19
2023-12-07T09:50:08.056Z,96614.81
2023-12-07T09:52:35.646Z,96616.41
2023-12-07T09:55:05.137Z,96615.00
2023-12-07T09:57:33.094Z,96617.97
2023-12-07T10:00:00.930Z,96613.78
2023-12-07T10:02:28.455Z,96607.91
2023-12-07T10:05:08.199Z,96601.94
2023-12-07T10:07:38.634Z,96603.56
2023-12-07T10:10:07.917Z,96598.88
2023-12-07T10:12:36.595Z,96598.19
2023-12-07T10:15:14.458Z,96599.16
2023-12-07T10:17:50.188Z,96601.63
2023-12-07T10:20:24.769Z,96595.84
2023-12-07T10:23:03.447Z,96595.13
2023-12-07T10:25:31.698Z,96599.06
2023-12-07T10:27:59.449Z,96593.91
2023-12-07T10:30:29.179Z,96590.06
2023-12-07T10:32:56.924Z,96586.56
2023-12-07T10:35:26.639Z,96581.28
2023-12-07T10:37:54.289Z,96572.22
2023-12-07T10:40:22.090Z,96580.28
2023-12-07T10:42:50.570Z,96576.16
2023-12-07T10:45:18.930Z,96568.72
2023-12-07T10:47:47.275Z,96568.63
2023-12-07T10:50:18.727Z,96572.75
2023-12-07T10:52:55.551Z,96568.94
2023-12-07T10:55:25.142Z,96559.31
2023-12-07T10:57:55.084Z,96555.72
2023-12-07T11:00:33.539Z,96558.69
2023-12-07T11:03:08.766Z,96560.56
2023-12-07T11:05:37.095Z,96560.41
2023-12-07T11:08:10.874Z,96558.56
2023-12-07T11:10:45.742Z,96563.31
2023-12-07T11:13:19.464Z,96565.69
2023-12-07T11:15:47.596Z,96556.28
2023-12-07T11:18:15.515Z,96563.13
2023-12-07T11:20:45.224Z,96559.84
2023-12-07T11:23:17.781Z,96559.47
2023-12-07T11:25:45.836Z,96557.56
2023-12-07T11:28:14.181Z,96562.53
2023-12-07T11:30:45.109Z,96553.47
2023-12-07T11:33:13.590Z,96549.28
2023-12-07T11:36:05.533Z,96550.00
2023-12-07T11:38:34.528Z,96540.25
2023-12-07T11:41:03.517Z,96548.22
2023-12-07T11:43:47.047Z,96543.31
2023-12-07T11:46:16.361Z,96548.13
2023-12-07T11:48:51.083Z,96539.19
2023-12-07T11:51:19.375Z,96543.69
2023-12-07T11:53:49.810Z,96534.66
2023-12-07T11:56:21.532Z,96537.38
2023-12-07T11:58:49.713Z,96538.31
2023-12-07T12:01:19.262Z,96543.91
2023-12-07T12:03:46.893Z,96537.78
2023-12-07T12:06:14.454Z,96535.00
2023-12-07T12:08:43.923Z,96524.44
2023-12-07T12:11:13.015Z,96534.56
2023-12-07T12:13:40.891Z,96518.59
2023-12-07T12:16:09.529Z,96521.63
2023-12-07T12:18:37.237Z,96516.81
2023-12-07T12:21:05.626Z,96515.28
2023-12-07T12:23:33.154Z,96513.16
2023-12-07T12:26:01.036Z,96520.03
2023-12-07T12:28:33.475Z,96508.22
2023-12-07T12:31:01.914Z,96499.75
2023-12-07T12:33:29.521Z,96496.66
2023-12-07T12:36:05.273Z,96490.69
2023-12-07T12:38:38.912Z,96494.56
2023-12-07T12:41:11.164Z,96483.31
2023-12-07T12:43:40.289Z,96482.03
2023-12-07T12:46:08.051Z,96468.34
2023-12-07T12:48:35.880Z,96476.66
2023-12-07T12:51:09.703Z,96472.13
2023-12-07T12:53:37.563Z,96477.69
2023-12-07T12:56:05.838Z,96482.50
2023-12-07T12:58:33.811Z,96478.97
2023-12-07T13:01:04.765Z,96484.50
2023-12-07T13:03:32.783Z,96481.03
2023-12-07T13:06:02.510Z,96470.88
2023-12-07T13:08:34.136Z,96466.56
2023-12-07T13:11:01.958Z,96456.38
2023-12-07T13:13:30.783Z,96451.50
2023-12-07T13:15:58.363Z,96464.75
2023-12-07T13:18:27.267Z,96452.22
2023-12-07T13:20:56.495Z,96461.25
2023-12-07T13:23:24.521Z,96466.22
2023-12-07T13:25:52.158Z,96463.44
2023-12-07T13:28:19.777Z,96476.09
2023-12-07T13:30:47.309Z,96470.50
2023-12-07T13:33:22.330Z,96465.56
2023-12-07T13:35:57.193Z,96454.28
2023-12-07T13:38:25.279Z,96463.09
2023-12-07T13:40:52.964Z,96468.00
2023-12-07T13:43:20.549Z,96471.59
2023-12-07T13:45:48.222Z,96464.34
2023-12-07T13:48:15.911Z,96456.94
2023-12-07T13:50:44.621Z,96454.19
2023-12-07T13:53:13.667Z,96458.09
2023-12-07T13:55:41.452Z,96442.78
2023-12-07T13:58:09.353Z,96442.75
2023-12-07T14:00:36.906Z,96440.50
2023-12-07T14:03:05.787Z,96438.50
2023-12-07T14:05:33.527Z,96430.97
2023-12-07T14:08:01.073Z,96429.78
2023-12-07T14:10:31.473Z,96434.38
2023-12-07T14:13:00.115Z,96436.72
2023-12-07T14:15:39.008Z,96436.81
2023-12-07T14:18:10.647Z,96436.81
2023-12-07T14:20:51.149Z,96439.56
2023-12-07T14:23:27.481Z,96434.91
2023-12-07T14:26:00.855Z,96441.25
2023-12-07T14:28:31.794Z,96431.50
2023-12-07T14:31:00.426Z,96435.44
2023-12-07T14:33:28.458Z,96439.09
2023-12-07T14:35:56.491Z,96436.72
2023-12-07T14:38:24.494Z,96435.94
2023-12-07T14:40:52.274Z,96438.00
2023-12-07T14:43:22.509Z,96427.81
2023-12-07T14:45:50.331Z,96426.13
2023-12-07T14:48:18.040Z,96437.72
2023-12-07T14:50:45.975Z,96441.78
2023-12-07T14:53:14.139Z,96437.03
2023-12-07T14:55:41.845Z,96440.97
2023-12-07T14:58:09.518Z,96438.22
2023-12-07T15:00:38.537Z,96437.28
2023-12-07T15:03:07.165Z,96444.91
2023-12-07T15:05:34.830Z,96446.81
2023-12-07T15:08:02.503Z,96452.06
2023-12-07T15:10:30.175Z,96447.28
2023-12-07T15:12:57.673Z,96452.03
2023-12-07T15:15:25.228Z,96455.38
2023-12-07T15:17:55.316Z,96446.25
2023-12-07T15:20:23.465Z,96444.00
2023-12-07T15:22:51.057Z,96433.34
2023-12-07T15:25:18.995Z,96440.28
2023-12-07T15:27:48.066Z,96442.06
2023-12-07T15:30:16.548Z,96446.22
2023-12-07T15:32:44.967Z,96450.34
2023-12-07T15:35:13.993Z,96454.22
2023-12-07T15:37:42.119Z,96462.84
2023-12-07T15:40:11.531Z,96464.75
2023-12-07T15:42:39.871Z,96463.22
2023-12-07T15:45:08.973Z,96462.09
2023-12-07T15:47:36.736Z,96456.75
2023-12-07T15:50:04.842Z,96470.47
2023-12-07T15:52:34.424Z,96462.09
2023-12-07T15:55:03.008Z,96461.44
2023-12-07T15:57:30.624Z,96467.19
2023-12-07T15:59:58.159Z,96458.38
2023-12-07T16:02:26.985Z,96456.56
2023-12-07T16:04:54.546Z,96457.94
2023-12-07T16:07:22.392Z,96455.56
2023-12-07T16:09:51.384Z,96452.44
2023-12-07T16:12:18.925Z,96456.50
2023-12-07T16:14:46.473Z,96459.44
2023-12-07T16:17:14.187Z,96454.81
2023-12-07T16:19:42.061Z,96449.88
2023-12-07T16:22:10.012Z,96452.41
2023-12-07T16:24:37.596Z,96448.47
2023-12-07T16:27:08.324Z,96450.97
2023-12-07T16:29:36.710Z,96441.44
2023-12-07T16:32:04.434Z,96451.78
2023-12-07T16:34:32.261Z,96449.91
2023-12-07T16:36:59.957Z,96452.38
2023-12-07T16:39:27.485Z,96446.75
2023-12-07T16:42:01.251Z,96452.06
2023-12-07T16:44:32.071Z,96441.69
2023-12-07T16:46:59.802Z,96438.09
2023-12-07T16:49:28.130Z,96429.75
2023-12-07T16:51:55.952Z,96440.03
2023-12-07T16:54:23.476Z,96424.38
2023-12-07T16:56:51.114Z,96431.91
2023-12-07T16:59:18.765Z,96429.31
2023-12-07T17:01:47.616Z,96425.22
2023-12-07T17:04:15.291Z,96424.69
2023-12-07T17:06:50.657Z,96434.13
2023-12-07T17:09:24.078Z,96429.84
2023-12-07T17:11:51.660Z,96428.53
2023-12-07T17:14:19.212Z,96436.25
2023-12-07T17:16:48.467Z,96436.31
2023-12-07T17:19:16.329Z,96422.16
2023-12-07T17:21:44.211Z,96423.00
2023-12-07T17:24:13.152Z,96424.50
2023-12-07T17:26:52.084Z,96427.72
2023-12-07T17:29:21.760Z,96420.97
2023-12-07T17:31:50.792Z,96408.19
2023-12-07T17:34:18.664Z,96404.84
2023-12-07T17:36:46.550Z,96397.47
2023-12-07T17:39:15.980Z,96404.03
2023-12-07T17:41:43.704Z,96406.91
2023-12-07T17:44:11.321Z,96394.63
2023-12-07T17:46:38.905Z,96398.31
2023-12-07T17:49:08.648Z,96393.13
2023-12-07T17:51:36.290Z,96390.47
2023-12-07T17:54:03.912Z,96392.50
2023-12-07T17:56:31.530Z,96385.63
2023-12-07T17:58:59.943Z,96388.25
2023-12-07T18:01:27.809Z,96375.13
2023-12-07T18:03:58.572Z,96372.81
2023-12-07T18:06:28.879Z,96366.78
2023-12-07T18:08:56.667Z,96365.53
2023-12-07T18:11:25.447Z,96359.47
2023-12-07T18:13:54.070Z,96354.22
2023-12-07T18:16:23.368Z,96355.41
2023-12-07T18:18:51.112Z,96353.53
2023-12-07T18:21:19.700Z,96356.88
2023-12-07T18:23:48.641Z,96346.78
2023-12-07T18:26:16.296Z,96347.31
2023-12-07T18:28:43.884Z,96347.75
2023-12-07T18:31:14.478Z,96337.81
2023-12-07T18:33:42.492Z,96349.44
2023-12-07T18:36:10.481Z,96343.03
2023-12-07T18:38:38.209Z,96333.50
2023-12-07T18:41:07.202Z,96342.78
2023-12-07T18:43:34.706Z,96342.97
2023-12-07T18:46:04.354Z,96326.25
2023-12-07T18:48:32.065Z,96320.34
2023-12-07T18:51:00.404Z,96310.97
2023-12-07T18:53:28.474Z,96320.72
2023-12-07T18:55:56.175Z,96313.88
2023-12-07T18:58:27.108Z,96311.75
2023-12-07T19:00:54.806Z,96306.94
2023-12-07T19:03:22.392Z,96312.38
2023-12-07T19:05:50.489Z,96312.81
2023-12-07T19:08:18.049Z,96305.75
2023-12-07T19:10:46.524Z,96305.31
2023-12-07T19:13:14.144Z,96303.91
2023-12-07T19:15:43.057Z,96303.44
2023-12-07T19:18:14.196Z,96284.19
2023-12-07T19:20:41.824Z,96275.59
2023-12-07T19:23:09.935Z,96281.50
2023-12-07T19:25:37.610Z,96278.53
2023-12-07T19:28:07.007Z,96272.72
2023-12-07T19:30:34.594Z,96277.75
2023-12-07T19:33:04.322Z,96268.44
2023-12-07T19:35:32.101Z,96270.53
2023-12-07T19:37:59.715Z,96271.25
2023-12-07T19:40:27.330Z,96273.09
2023-12-07T19:42:54.885Z,96286.09
2023-12-07T19:45:22.540Z,96279.97
2023-12-07T19:47:50.330Z,96284.16
2023-12-07T19:50:19.501Z,96295.38
2023-12-07T19:52:47.048Z,96299.66
2023-12-07T19:55:14.730Z,96291.69
2023-12-07T19:57:43.552Z,96302.09
2023-12-07T20:00:12.800Z,96295.69
2023-12-07T20:02:40.494Z,96285.97
2023-12-07T20:05:09.574Z,96281.28
2023-12-07T20:07:40.747Z,96276.91
2023-12-07T20:10:09.947Z,96267.34
2023-12-07T20:12:37.977Z,96255.38
2023-12-07T20:15:06.589Z,96250.66
2023-12-07T20:17:34.309Z,96244.72
2023-12-07T20:20:02.006Z,96237.81
2023-12-07T20:22:29.674Z,96241.91
2023-12-07T20:24:58.536Z,96231.66
2023-12-07T20:27:26.394Z,96235.94
2023-12-07T20:29:54.179Z,96223.63
2023-12-07T20:32:22.363Z,96221.94
2023-12-07T20:34:50.778Z,96219.63
2023-12-07T20:37:19.650Z,96224.94
2023-12-07T20:39:47.403Z,96235.91
2023-12-07T20:42:16.967Z,96233.00
2023-12-07T20:44:45.446Z,96220.66
2023-12-07T20:47:13.004Z,96222.06
2023-12-07T20:49:40.829Z,96215.44
2023-12-07T20:52:08.964Z,96219.22
2023-12-07T20:54:36.618Z,96220.28
2023-12-07T20:57:04.755Z,96226.97
2023-12-07T20:59:33.818Z,96238.19
2023-12-07T21:02:01.555Z,96232.34
2023-12-07T21:04:29.143Z,96237.00
2023-12-07T21:06:56.706Z,96234.06
2023-12-07T21:09:24.223Z,96230.91
2023-12-07T21:11:51.776Z,96229.34
2023-12-07T21:14:19.316Z,96238.56
2023-12-07T21:16:48.189Z,96213.06
2023-12-07T21:19:15.898Z,96197.28
2023-12-07T21:21:43.514Z,96188.72
2023-12-07T21:24:11.606Z,96186.94
2023-12-07T21:26:39.295Z,96196.22
2023-12-07T21:29:06.832Z,96210.97
2023-12-07T21:31:34.459Z,96196.44
2023-12-07T21:34:03.432Z,96197.94
2023-12-07T21:36:31.063Z,96190.28
2023-12-07T21:38:58.609Z,96190.19
2023-12-07T21:41:26.319Z,96194.53
2023-12-07T21:43:53.915Z,96189.63
2023-12-07T21:46:21.424Z,96182.75
2023-12-07T21:48:49.070Z,96180.13
2023-12-07T21:51:18.065Z,96176.75
2023-12-07T21:53:45.713Z,96177.50
2023-12-07T21:56:13.732Z,96175.69
2023-12-07T21:58:41.642Z,96170.75
2023-12-07T22:01:09.185Z,96163.22
2023-12-07T22:03:37.966Z,96159.88
2023-12-07T22:06:06.552Z,96148.28
2023-12-07T22:08:35.462Z,96143.53
2023-12-07T22:11:03.378Z,96139.22
2023-12-07T22:13:31.574Z,96134.22
2023-12-07T22:15:59.124Z,96120.38
2023-12-07T22:18:26.781Z,96116.66
2023-12-07T22:20:54.319Z,96119.19
2023-12-07T22:23:22.636Z,96119.19
2023-12-07T22:25:51.498Z,96123.16
2023-12-07T22:28:19.031Z,96114.16
2023-12-07T22:30:46.576Z,96113.53
2023-12-07T22:33:14.665Z,96102.75
2023-12-07T22:35:43.865Z,96100.94
2023-12-07T22:38:11.513Z,96097.03
2023-12-07T22:40:40.256Z,96085.75
2023-12-07T22:43:09.299Z,96083.25
2023-12-07T22:45:36.839Z,96071.56
2023-12-07T22:48:07.213Z,96062.19
2023-12-07T22:50:34.984Z,96054.38
2023-12-07T22:53:03.507Z,96039.66
2023-12-07T22:55:31.072Z,96054.69
2023-12-07T22:57:58.602Z,96048.00
2023-12-07T23:00:28.656Z,96041.34
2023-12-07T23:02:56.412Z,96046.53
2023-12-07T23:05:23.980Z,96041.47
2023-12-07T23:07:51.534Z,96032.00
2023-12-07T23:10:19.049Z,96022.31
2023-12-07T23:12:46.620Z,96017.41
2023-12-07T23:15:14.765Z,96020.06
2023-12-07T23:17:43.792Z,96007.84
2023-12-07T23:20:11.740Z,96015.94
2023-12-07T23:22:39.385Z,96013.78
2023-12-07T23:25:07.843Z,96016.69
2023-12-07T23:27:35.458Z,96011.25
2023-12-07T23:30:03.033Z,96008.81
2023-12-07T23:32:30.797Z,96017.88
2023-12-07T23:34:59.827Z,96004.91
2023-12-07T23:37:27.665Z,96005.53
2023-12-07T23:39:55.547Z,95989.13
2023-12-07T23:42:23.109Z,95987.00
2023-12-07T23:44:50.867Z,95984.19
2023-12-07T23:47:19.507Z,95984.94
2023-12-07T23:49:47.153Z,95985.25
2023-12-07T23:52:16.459Z,95982.78
2023-12-07T23:54:45.616Z,95972.09
2023-12-07T23:57:13.153Z,95969.94
2023-12-07T23:59:40.753Z,95965.06
